ProRodeoTv.Com
Red

PRCA Stock Statistics

SEARCH BY:
Stock Rodeo Contestant Stock Contractor

Zeb Lanham

EVENT:
Unofficial results reflect placement at time of Web posting and can change.

SEASON BREAKDOWN

Season Attempts Qual Rides Re-rides Ride %
2016 24 8 0 33.33 %
2015 65 18 0 27.69 %
2014 69 17 0 24.64 %
2013 14 2 0 14.29 %
2012 19 5 0 26.32 %
2011 31 10 0 32.26 %
2010 10 3 0 30.00 %
Totals 232 63 0 0.00 %

RODEO DETAIL

Date Location Rodeo SC Brand Ride Comments Stock Score Contestant Score
9/2/2016 Ellensburg, WA Xtreme Bulls Tour Finale TB 200 0.00 21.00 / 0.00 0.00 / 0.00
7/22/2016 Nampa, ID Snake River Stampede NW W53 0.00 23.00 / 23.00 0.00 / 0.00
7/14/2016 Gunnison, CO Cattlemen s Days SH 107 0.00 23.00 / 23.00 0.00 / 0.00
7/9/2016 Elgin, OR Elgin Stampede FF 54 0.00 20.00 / 22.00 0.00 / 0.00
7/7/2016 Cheney, WA Cheney Rodeo C5 238 0.00 21.00 / 21.00 0.00 / 0.00
7/2/2016 Molalla, OR Molalla Buckeroo Rodeo BI 237 0.00 20.00 / 20.00 0.00 / 0.00
7/2/2016 St. Paul, OR St. Paul Rodeo TB 066 72.50 18.00 / 18.00 19.00 / 17.50
7/1/2016 Eugene, OR Eugene Pro Rodeo JD 04 0.00 20.50 / 20.00 0.00 / 0.00
6/24/2016 Reno, NV Reno Rodeo FU 10725/ 0.00 23.00 / 22.00 0.00 / 0.00
6/17/2016 Reno, NV Reno Rodeo ST 110 81.00 20.50 / 20.00 20.50 / 20.00
6/10/2016 Union, OR Eastern Oregon Livestock Show FF 935 84.00 21.00 / 21.00 20.00 / 22.00
6/10/2016 Sisters, OR Sisters Rodeo CH 206 0.00 21.50 / 21.00 0.00 / 0.00
6/9/2016 Union, OR EOLS Ed Miller Xtreme Bulls BI 22 0.00 21.00 / 19.00 0.00 / 0.00
6/7/2016 Sisters, OR Sisters Rodeo Xtreme Bulls JD 011 0.00 22.00 / 19.00 0.00 / 0.00
4/9/2016 Kissimmee, FL RNCFR SP 17 0.00 0.00 / 21.50 0.00 / 0.00
4/7/2016 Kissimmee, FL RNCFR RH 112 0.00 21.00 / 20.00 0.00 / 0.00
2/18/2016 San Angelo, TX San Angelo Rodeo UP 21 0.00 22.00 / 21.00 0.00 / 0.00
1/20/2016 Fort Worth, TX SWELS - Division 2 Qualifying Event Xtreme Bulls UP 977 87.00 21.50 / 21.00 22.50 / 22.00
1/19/2016 Fort Worth, TX SWELS - Division 2 Qualifying Event Xtreme Bulls SS 013 86.00 21.00 / 21.00 22.50 / 21.50
1/17/2016 Denver, CO National Western Stock Show and Rodeo CC 604 80.00 20.00 / 19.00 21.00 / 20.00
1/16/2016 Denver, CO National Western Stock Show and Rodeo SM 143 0.00 19.00 / 19.00 0.00 / 0.00
11/7/2015 Yakima, WA Columbia River Prorodeo Circuit Finals FF 54 79.00 19.00 / 18.00 20.00 / 22.00
11/7/2015 Yakima, WA Columbia River Prorodeo Circuit Finals CH 066 79.00 19.00 / 19.00 21.00 / 20.00
11/6/2015 Yakima, WA Columbia River Prorodeo Circuit Finals BI 061 0.00 19.00 / 20.00 0.00 / 0.00
Page of 1
Per Page
 
 
 
Copyright © 2017 Professional Rodeo Cowboys Association. All rights reserved. No portion of ProRodeo.com may be duplicated, redistributed or manipulated in any form. By accessing any information beyond this page, you agree to abide by the Terms of Use.
PRCA Wrangler National Finals Rodeo Wrangler Champions Challenge Justin Boots Playoffs Xtreme Bulls RAM National Circuit Finals Rodeo ProRodeo Gear ProRodeoTv.com var gaJsHost = (("https:" == document.location.protocol) ? "https://ssl." : "http://www."); document.write(unescape("%3Cscript src='" + gaJsHost + "google-analytics.com/ga.js' type='text/javascript'%3E%3C/script%3E"));